»·PEaware :: DAL510 KSLC-KSAN

DAL510 :: KSLC-KSAN

FLIGHT INFORMATION

Flight Status: Arrived
Operator:
Delta Air Lines
More flights by this operator :: More flights under this callsign
Pilot: Jac C. (16067)
Aircraft: BOEING 737-800
(B738)
More flights by this aircraft type
Origin: KSLC Salt Lake City Intl
United States
Destination: KSAN San Diego Intl-Lindbergh
United States
More flights between these airports :: More routes between these airports
Route: +ZIONZ1 EHK LAKRR Q73 LVELL LUCKI1
File this flight plan on PilotEdge
Remarks: PBN / A1B1C1D1S1S2 DOF / 181202 REG / N806SB EET / KZLA0031 OPR / DAL PER / C RMK / TCAS SIMBRIEF
Altitude:
(Current/Filed)
36,000ft
Speed:
(Current/Filed)
449kts
Departed: 01-Dec-18 06:24 PM
Arrived: 01-Dec-18 08:03 PM
Distance/Time
Traveled:
544nm/1:39
Distance/Time
To Go:
Arrived

Flight Plot

Page will automatically refresh every two minutes.

Flight plan parsing failed; only flown route is shown


Map Options




Map Legend


Flown Route
Filed Route
Departure Airport
Arrival Airport
Navaid (VOR, NDB)
Fix

Horizontal Profiles

Position Reports

Time Latitude Longitude Heading Altitude Ground
Speed
01-Dec-18 17:39 40.789104 -111.980756 228 4234ft 0kts
01-Dec-18 17:40 40.789104 -111.980756 228 4234ft 0kts
01-Dec-18 17:41 40.789104 -111.980756 228 4234ft 0kts
01-Dec-18 17:42 40.789104 -111.980756 228 4234ft 0kts
01-Dec-18 17:43 40.789104 -111.980756 228 4234ft 0kts
01-Dec-18 17:44 40.789104 -111.980756 228 4234ft 0kts
01-Dec-18 17:45 40.789104 -111.980756 228 4234ft 0kts
01-Dec-18 17:46 40.789104 -111.980756 228 4234ft 0kts
01-Dec-18 17:47 40.789104 -111.980756 228 4234ft 0kts
01-Dec-18 17:48 40.789104 -111.980756 228 4234ft 0kts
01-Dec-18 17:49 40.789104 -111.980756 228 4234ft 0kts
01-Dec-18 17:50 40.789104 -111.980756 228 4234ft 0kts
01-Dec-18 17:51 40.789104 -111.980756 228 4234ft 0kts
01-Dec-18 17:52 40.789104 -111.980756 228 4234ft 0kts
01-Dec-18 17:53 40.789104 -111.980756 228 4234ft 0kts
01-Dec-18 17:54 40.789104 -111.980756 228 4234ft 0kts
01-Dec-18 17:55 40.789104 -111.980756 228 4234ft 0kts
01-Dec-18 17:56 40.789104 -111.980756 228 4234ft 0kts
01-Dec-18 17:57 40.789104 -111.980756 228 4234ft 0kts
01-Dec-18 17:58 40.789104 -111.980756 228 4234ft 0kts
01-Dec-18 17:59 40.789104 -111.980756 228 4234ft 0kts
01-Dec-18 18:00 40.789104 -111.980756 228 4234ft 0kts
01-Dec-18 18:01 40.789104 -111.980756 228 4234ft 0kts
01-Dec-18 18:02 40.789104 -111.980756 228 4234ft 0kts
01-Dec-18 18:03 40.789104 -111.980756 228 4234ft 0kts
01-Dec-18 18:04 40.789104 -111.980756 228 4234ft 0kts
01-Dec-18 18:05 40.789104 -111.980756 228 4234ft 0kts
01-Dec-18 18:06 40.789104 -111.980756 228 4234ft 0kts
01-Dec-18 18:07 40.789104 -111.980756 228 4234ft 0kts
01-Dec-18 18:08 40.789104 -111.980756 229 4234ft 0kts
01-Dec-18 18:09 40.789104 -111.980756 228 4234ft 0kts
01-Dec-18 18:10 40.789104 -111.980756 228 4234ft 0kts
01-Dec-18 18:11 40.789104 -111.980756 228 4235ft 0kts
01-Dec-18 18:12 40.789104 -111.980756 228 4235ft 0kts
01-Dec-18 18:13 40.789104 -111.980756 228 4235ft 0kts
01-Dec-18 18:14 40.789104 -111.980756 229 4235ft 0kts
01-Dec-18 18:15 40.789131 -111.980714 229 4235ft 2kts
01-Dec-18 18:16 40.789649 -111.980359 184 4235ft 2kts
01-Dec-18 18:17 40.789979 -111.980832 82 4235ft 2kts
01-Dec-18 18:18 40.789970 -111.981009 87 4235ft 0kts
01-Dec-18 18:19 40.789970 -111.981009 87 4235ft 0kts
01-Dec-18 18:20 40.789970 -111.981005 87 4235ft 0kts
01-Dec-18 18:21 40.790242 -111.978342 84 4235ft 15kts
01-Dec-18 18:22 40.794038 -111.977554 355 4235ft 19kts
01-Dec-18 18:23 40.798678 -111.978093 355 4235ft 16kts
01-Dec-18 18:24 40.803288 -111.978277 9 4235ft 16kts
01-Dec-18 18:25 40.807076 -111.978507 19 4235ft 0kts
01-Dec-18 18:26 40.807322 -111.977338 118 4235ft 9kts
01-Dec-18 18:27 40.791629 -111.975105 175 4235ft 146kts
01-Dec-18 18:28 40.742976 -111.965781 171 5398ft 196kts
01-Dec-18 18:29 40.680121 -111.951371 171 6333ft 259kts
01-Dec-18 18:30 40.605221 -111.943770 182 8245ft 274kts
01-Dec-18 18:31 40.528046 -111.942925 181 10242ft 284kts
01-Dec-18 18:32 40.444974 -111.941600 181 11801ft 306kts
01-Dec-18 18:33 40.358864 -111.940173 181 13791ft 315kts
01-Dec-18 18:34 40.270465 -111.938752 183 15699ft 323kts
01-Dec-18 18:35 40.180934 -111.952197 190 17400ft 330kts
01-Dec-18 18:36 40.088813 -111.966510 190 19202ft 339kts
01-Dec-18 18:37 39.994107 -111.980397 190 20955ft 350kts
01-Dec-18 18:38 39.896684 -111.994648 191 22580ft 360kts
01-Dec-18 18:39 39.797657 -112.009098 191 24088ft 370kts
01-Dec-18 18:40 39.694353 -112.024034 192 25515ft 381kts
01-Dec-18 18:41 39.587802 -112.039508 192 26861ft 391kts
01-Dec-18 18:42 39.478708 -112.055301 192 28099ft 401kts
01-Dec-18 18:43 39.366806 -112.071285 192 29327ft 409kts
01-Dec-18 18:44 39.254075 -112.087235 193 30685ft 410kts
01-Dec-18 18:45 39.141840 -112.107165 205 31899ft 401kts
01-Dec-18 18:46 39.044630 -112.169592 216 33067ft 390kts
01-Dec-18 18:47 38.951537 -112.237154 220 34493ft 379kts
01-Dec-18 18:48 38.864295 -112.300325 223 35827ft 367kts
01-Dec-18 18:49 38.775113 -112.365390 222 35835ft 392kts
01-Dec-18 18:50 38.677838 -112.435686 221 35816ft 409kts
01-Dec-18 18:51 38.578840 -112.506818 221 35805ft 409kts
01-Dec-18 18:52 38.479533 -112.578043 221 35803ft 409kts
01-Dec-18 18:53 38.380586 -112.648812 221 35808ft 410kts
01-Dec-18 18:54 38.281773 -112.719125 221 35820ft 409kts
01-Dec-18 18:55 38.182498 -112.789626 221 35824ft 411kts
01-Dec-18 18:56 38.082855 -112.860136 221 35820ft 410kts
01-Dec-18 18:57 37.983782 -112.930044 222 35825ft 409kts
01-Dec-18 18:58 37.886299 -112.998661 223 35827ft 408kts
01-Dec-18 18:59 37.788511 -113.067299 223 35819ft 408kts
01-Dec-18 19:00 37.690314 -113.138230 223 35822ft 408kts
01-Dec-18 19:01 37.592267 -113.208072 223 35818ft 407kts
01-Dec-18 19:02 37.493751 -113.278315 224 35818ft 406kts
01-Dec-18 19:03 37.395481 -113.348444 224 35832ft 407kts
01-Dec-18 19:04 37.297346 -113.418501 224 35841ft 406kts
01-Dec-18 19:05 37.199202 -113.488605 224 35846ft 407kts
01-Dec-18 19:06 37.101190 -113.558639 224 35841ft 406kts
01-Dec-18 19:07 37.004504 -113.627717 226 35843ft 397kts
01-Dec-18 19:08 36.910792 -113.694693 226 35864ft 395kts
01-Dec-18 19:09 36.818165 -113.761000 226 35858ft 396kts
01-Dec-18 19:10 36.723214 -113.828946 226 35854ft 395kts
01-Dec-18 19:11 36.628275 -113.896930 226 35853ft 395kts
01-Dec-18 19:12 36.533226 -113.965011 226 35853ft 395kts
01-Dec-18 19:13 36.438485 -114.032900 226 35852ft 395kts
01-Dec-18 19:14 36.344226 -114.100442 226 35822ft 388kts
01-Dec-18 19:15 36.251202 -114.167194 225 35820ft 388kts
01-Dec-18 19:16 36.157927 -114.234091 226 35825ft 388kts
01-Dec-18 19:17 36.071210 -114.307187 240 35825ft 360kts
01-Dec-18 19:18 36.004071 -114.398385 241 35818ft 357kts
01-Dec-18 19:19 35.937885 -114.489383 241 35818ft 357kts
01-Dec-18 19:20 35.873122 -114.578521 241 35810ft 357kts
01-Dec-18 19:21 35.807350 -114.669090 241 35835ft 358kts
01-Dec-18 19:22 35.741517 -114.759643 241 35830ft 358kts
01-Dec-18 19:23 35.675501 -114.850704 241 35830ft 358kts
01-Dec-18 19:24 35.608996 -114.941818 241 35830ft 358kts
01-Dec-18 19:25 35.542372 -115.032812 241 35825ft 360kts
01-Dec-18 19:26 35.453163 -115.102433 215 35833ft 414kts
01-Dec-18 19:27 35.343847 -115.147746 214 35822ft 416kts
01-Dec-18 19:28 35.234553 -115.192787 215 35843ft 416kts
01-Dec-18 19:29 35.125217 -115.237798 215 35854ft 415kts
01-Dec-18 19:30 35.015898 -115.282880 214 35852ft 416kts
01-Dec-18 19:31 34.904844 -115.328697 212 35859ft 427kts
01-Dec-18 19:32 34.793857 -115.374367 212 35851ft 427kts
01-Dec-18 19:33 34.681075 -115.420870 212 35864ft 429kts
01-Dec-18 19:34 34.587440 -115.459480 212 35928ft 428kts
01-Dec-18 19:35 34.456328 -115.513529 212 35954ft 428kts
01-Dec-18 19:36 34.362652 -115.552169 212 35955ft 429kts
01-Dec-18 19:37 34.232021 -115.605886 213 35925ft 410kts
01-Dec-18 19:38 34.148194 -115.643891 217 35953ft 379kts
01-Dec-18 19:39 34.062054 -115.684798 216 35970ft 381kts
01-Dec-18 19:40 33.963159 -115.731457 215 33886ft 393kts
01-Dec-18 19:41 33.865443 -115.778243 215 31637ft 385kts
01-Dec-18 19:42 33.772396 -115.823892 215 29740ft 372kts
01-Dec-18 19:43 33.679932 -115.867358 213 27853ft 363kts
01-Dec-18 19:44 33.587305 -115.910595 213 25984ft 353kts
01-Dec-18 19:45 33.506860 -115.965591 236 24207ft 316kts
01-Dec-18 19:46 33.455291 -116.048110 243 23009ft 316kts
01-Dec-18 19:47 33.406189 -116.132290 242 21150ft 313kts
01-Dec-18 19:48 33.357288 -116.216145 242 19509ft 302kts
01-Dec-18 19:49 33.290987 -116.277797 214 17985ft 313kts
01-Dec-18 19:50 33.213623 -116.322827 213 16466ft 307kts
01-Dec-18 19:51 33.138082 -116.366929 212 15078ft 299kts
01-Dec-18 19:52 33.065215 -116.409436 211 13729ft 294kts
01-Dec-18 19:53 32.994236 -116.454389 225 12411ft 283kts
01-Dec-18 19:54 32.935149 -116.514985 226 11128ft 279kts
01-Dec-18 19:55 32.878442 -116.572280 225 10041ft 271kts
01-Dec-18 19:56 32.821757 -116.629403 224 8927ft 264kts
01-Dec-18 19:57 32.769651 -116.685042 238 7855ft 257kts
01-Dec-18 19:58 32.735678 -116.758106 242 6840ft 252kts
01-Dec-18 19:59 32.702370 -116.830805 250 5766ft 248kts
01-Dec-18 20:00 32.680663 -116.904596 251 4627ft 223kts
01-Dec-18 20:01 32.678632 -116.970492 285 3619ft 187kts
01-Dec-18 20:02 32.693445 -117.025714 285 2876ft 169kts
01-Dec-18 20:03 32.705387 -117.074153 285 2170ft 145kts
01-Dec-18 20:04 32.716481 -117.119114 285 1275ft 143kts
01-Dec-18 20:05 32.727114 -117.163353 285 397ft 144kts
01-Dec-18 20:06 32.735245 -117.196581 285 23ft 14kts
01-Dec-18 20:07 32.735269 -117.201001 285 23ft 17kts
01-Dec-18 20:08 32.733502 -117.202691 171 23ft 8kts
01-Dec-18 20:09 32.732963 -117.203549 270 24ft 0kts

Navigation Log

Ident Type
Flight plan parsing failed, navigation log unavailable